Time;durP1;ratioP1;P1;durP2;ratioP2;P2;SDS_P1;SDS_P2;PMS_P1;PMS_P2;Temp;Humidity;BMP_temperature;BMP_pressure;BME280_temperature;BME280_humidity;BME280_pressure;Samples;Min_cycle;Max_cycle;Signal;HPM_P1;HPM_P2
2021/07/01 00:02:21;;;;;;;1.73;1.23;;;;;;;8.63;87.94;90806.75;4997841;28;20030;-87
2021/07/01 00:05:00;;;;;;;2.10;1.42;;;;;;;8.68;87.14;90806.53;4996804;28;20026;-87
2021/07/01 00:07:37;;;;;;;2.05;1.50;;;;;;;8.78;86.53;90802.78;4967988;28;20034;-89
2021/07/01 00:10:28;;;;;;;1.65;1.20;;;;;;;8.73;86.75;90795.97;4960582;28;20030;-87
2021/07/01 00:13:08;;;;;;;1.63;1.20;;;;;;;8.72;87.78;90793.66;4993509;28;20031;-88
2021/07/01 00:15:45;;;;;;;1.90;1.30;;;;;;;8.73;88.26;90798.56;4977458;28;20041;-85
2021/07/01 00:18:28;;;;;;;2.85;1.40;;;;;;;8.79;88.01;90789.47;4960273;28;20080;-87
2021/07/01 00:21:10;;;;;;;1.65;1.25;;;;;;;8.77;88.49;90790.91;4977232;28;20026;-88
2021/07/01 00:23:47;;;;;;;1.88;1.40;;;;;;;8.80;88.23;90790.25;4961119;28;20026;-87
2021/07/01 00:26:26;;;;;;;1.20;0.90;;;;;;;8.76;88.06;90787.53;4989854;28;20064;-87
2021/07/01 00:29:06;;;;;;;1.33;0.90;;;;;;;8.75;88.19;90783.41;4963722;28;20112;-87
2021/07/01 00:31:42;;;;;;;1.73;0.93;;;;;;;8.75;87.82;90782.66;4994947;28;20022;-87
2021/07/01 00:34:15;;;;;;;1.88;1.08;;;;;;;8.65;88.44;90785.63;4980030;28;20022;-86
2021/07/01 00:36:49;;;;;;;2.25;0.60;;;;;;;8.81;86.95;90796.97;4963208;28;20030;-87
2021/07/01 00:39:24;;;;;;;2.00;0.90;;;;;;;8.85;85.85;90792.66;4978906;28;20036;-88
2021/07/01 00:42:01;;;;;;;2.38;1.40;;;;;;;8.94;86.33;90795.94;4976577;28;20045;-87
2021/07/01 00:44:37;;;;;;;2.67;0.90;;;;;;;8.80;86.84;90785.81;4975893;28;20105;-87
2021/07/01 00:47:15;;;;;;;3.03;1.10;;;;;;;9.04;85.68;90786.97;4976149;28;20030;-87
2021/07/01 00:49:49;;;;;;;1.60;1.10;;;;;;;9.07;85.62;90789.66;4960153;28;20072;-87
2021/07/01 00:52:24;;;;;;;1.38;0.80;;;;;;;8.97;86.29;90790.06;4959123;28;20026;-88
2021/07/01 00:55:04;;;;;;;1.40;1.00;;;;;;;8.93;87.20;90778.81;4960370;28;20112;-84
2021/07/01 00:57:42;;;;;;;2.13;0.95;;;;;;;8.90;87.03;90774.25;4959802;28;20030;-87
2021/07/01 01:03:20;;;;;;;1.75;1.00;;;;;;;8.86;87.06;90774.13;4977885;28;20030;-87
2021/07/01 01:05:50;;;;;;;1.75;1.10;;;;;;;8.82;87.90;90767.28;4960337;28;20512;-87
2021/07/01 01:08:25;;;;;;;1.25;0.90;;;;;;;8.90;87.14;90768.28;4949420;28;20065;-87
2021/07/01 01:11:06;;;;;;;2.80;1.05;;;;;;;8.79;87.60;90767.94;4993894;28;20514;-87
2021/07/01 01:13:42;;;;;;;1.25;0.90;;;;;;;8.87;86.70;90774.91;4995415;28;20022;-84
2021/07/01 01:16:18;;;;;;;1.20;0.80;;;;;;;8.89;86.84;90777.19;4978473;28;20025;-86
2021/07/01 01:18:46;;;;;;;1.30;0.85;;;;;;;8.89;86.04;90767.53;4994786;28;20080;-87
2021/07/01 01:21:14;;;;;;;1.17;0.80;;;;;;;8.82;86.78;90775.84;4994209;28;20026;-87
2021/07/01 01:23:48;;;;;;;1.63;0.93;;;;;;;8.74;87.74;90770.75;4977849;28;20061;-88
2021/07/01 01:26:17;;;;;;;2.03;0.88;;;;;;;8.82;87.21;90767.28;4989144;28;20112;-88
2021/07/01 01:28:54;;;;;;;1.75;0.80;;;;;;;8.85;87.00;90769.25;5010659;28;20026;-87
2021/07/01 01:31:32;;;;;;;1.45;0.70;;;;;;;8.91;87.04;90767.97;5010315;28;20029;-88
2021/07/01 01:34:14;;;;;;;1.08;0.70;;;;;;;8.82;88.16;90767.28;5010433;28;20030;-88
2021/07/01 01:36:52;;;;;;;1.63;1.00;;;;;;;8.83;88.53;90768.81;4991670;28;20033;-87
2021/07/01 01:39:19;;;;;;;1.20;0.82;;;;;;;8.94;87.97;90771.75;4991489;28;20041;-87
2021/07/01 01:41:47;;;;;;;0.82;0.60;;;;;;;8.98;87.34;90760.44;4974833;28;20053;-87
2021/07/01 01:44:23;;;;;;;1.38;0.90;;;;;;;8.94;87.90;90767.34;4974627;28;20026;-87
2021/07/01 01:47:04;;;;;;;0.60;0.50;;;;;;;8.97;88.02;90771.88;4962675;28;20045;-87
2021/07/01 01:49:44;;;;;;;1.67;0.70;;;;;;;8.93;88.04;90770.25;4962666;28;20025;-88
2021/07/01 01:52:25;;;;;;;0.85;0.60;;;;;;;8.93;88.34;90771.00;4994135;28;20407;-88
2021/07/01 01:55:12;;;;;;;3.08;0.60;;;;;;;8.92;88.48;90769.50;4995253;28;20141;-88
2021/07/01 01:57:53;;;;;;;2.15;0.70;;;;;;;9.06;88.01;90762.16;4993735;28;20030;-86
2021/07/01 02:00:30;;;;;;;0.68;0.50;;;;;;;8.98;88.36;90770.81;4994722;28;20124;-87
2021/07/01 02:03:00;;;;;;;1.05;0.77;;;;;;;9.00;88.14;90766.03;4977792;28;20030;-88
2021/07/01 02:05:45;;;;;;;1.10;0.65;;;;;;;9.07;88.14;90763.69;4975918;28;20034;-87
2021/07/01 02:08:25;;;;;;;0.82;0.52;;;;;;;9.13;87.50;90760.88;5013773;28;20109;-87
2021/07/01 02:11:04;;;;;;;0.93;0.63;;;;;;;9.20;86.54;90763.72;4981237;28;20562;-88
2021/07/01 02:13:42;;;;;;;1.00;0.73;;;;;;;9.12;86.40;90760.13;4980672;28;20030;-87
2021/07/01 02:16:16;;;;;;;1.45;0.80;;;;;;;9.07;87.18;90760.31;4998037;28;20076;-85
2021/07/01 02:19:01;;;;;;;1.85;0.95;;;;;;;9.06;87.06;90756.97;5014918;28;20025;-87
2021/07/01 02:21:36;;;;;;;2.92;1.10;;;;;;;9.08;86.87;90756.63;4999355;28;20148;-87
2021/07/01 02:24:15;;;;;;;2.03;1.00;;;;;;;9.00;87.41;90741.91;4996374;28;20097;-88
2021/07/01 02:26:55;;;;;;;1.95;1.10;;;;;;;9.07;86.65;90753.28;4981625;28;20045;-87
2021/07/01 02:29:30;;;;;;;1.33;1.02;;;;;;;9.05;86.80;90757.31;4998007;28;20048;-88
2021/07/01 02:32:10;;;;;;;3.05;1.00;;;;;;;8.95;87.79;90745.47;5057825;23;20602;-87
2021/07/01 02:34:53;;;;;;;1.30;1.00;;;;;;;9.14;86.97;90754.59;5017322;28;20402;-87
2021/07/01 02:37:34;;;;;;;1.60;1.00;;;;;;;9.14;86.47;90757.19;5018618;28;20112;-86
2021/07/01 02:40:12;;;;;;;1.77;1.13;;;;;;;9.19;86.30;90749.97;5001306;28;20064;-87
2021/07/01 02:42:47;;;;;;;1.90;1.10;;;;;;;9.21;86.57;90757.44;5000222;28;20491;-88
2021/07/01 02:45:23;;;;;;;2.33;1.20;;;;;;;9.15;87.32;90753.50;5016629;28;20120;-87
2021/07/01 02:48:02;;;;;;;2.17;1.33;;;;;;;9.08;86.69;90752.22;5001895;28;20026;-87
2021/07/01 02:50:39;;;;;;;2.30;1.50;;;;;;;9.22;86.69;90762.31;4997521;28;20045;-87
2021/07/01 02:53:18;;;;;;;2.50;1.42;;;;;;;9.21;85.42;90757.44;4965662;28;20022;-88
2021/07/01 02:55:53;;;;;;;2.20;1.60;;;;;;;9.28;85.53;90757.66;4981935;28;20037;-87
2021/07/01 02:58:32;;;;;;;2.75;1.80;;;;;;;9.16;86.46;90766.19;4980905;28;20037;-87
2021/07/01 03:01:11;;;;;;;2.60;1.60;;;;;;;9.27;86.63;90763.94;4965501;28;20030;-87
2021/07/01 03:03:47;;;;;;;2.55;1.85;;;;;;;9.17;86.42;90769.56;4965984;28;20396;-87
2021/07/01 03:06:26;;;;;;;2.65;1.70;;;;;;;9.22;86.52;90764.13;4981637;28;20026;-87
2021/07/01 03:09:02;;;;;;;5.88;1.90;;;;;;;9.27;86.28;90762.09;4965263;28;20116;-87
2021/07/01 03:11:39;;;;;;;2.88;2.10;;;;;;;9.28;86.16;90757.66;4980244;28;20100;-86
2021/07/01 03:14:19;;;;;;;2.60;1.73;;;;;;;9.15;87.53;90759.50;4982172;28;20551;-87
2021/07/01 03:16:55;;;;;;;2.33;1.85;;;;;;;9.21;85.81;90752.22;4980133;28;20025;-87
2021/07/01 03:19:30;;;;;;;3.30;1.88;;;;;;;9.18;86.68;90755.47;4997641;28;20504;-87
2021/07/01 03:22:09;;;;;;;2.95;2.00;;;;;;;9.26;86.18;90754.63;4965347;28;20399;-87
2021/07/01 03:24:42;;;;;;;3.28;2.10;;;;;;;9.31;85.50;90752.56;4966096;28;20235;-87
2021/07/01 03:27:17;;;;;;;3.30;1.90;;;;;;;9.32;85.16;90748.13;5032826;28;20478;-86
2021/07/01 03:29:54;;;;;;;3.75;2.20;;;;;;;9.25;85.86;90753.09;5008715;28;20082;-86
2021/07/01 03:32:33;;;;;;;2.42;1.73;;;;;;;9.27;85.77;90748.34;5000938;28;20483;-87
2021/07/01 03:35:10;;;;;;;2.42;1.70;;;;;;;9.37;85.29;90755.72;5008327;28;20033;-87
2021/07/01 03:37:49;;;;;;;3.15;2.03;;;;;;;9.26;85.97;90752.03;5016610;28;20026;-87
2021/07/01 03:40:26;;;;;;;3.67;1.80;;;;;;;9.25;86.12;90759.06;5000385;28;20398;-87
2021/07/01 03:43:02;;;;;;;3.50;1.98;;;;;;;9.23;85.44;90761.22;4984332;28;20029;-87
2021/07/01 03:45:40;;;;;;;3.03;2.08;;;;;;;9.23;85.90;90761.22;5000987;28;20025;-87
2021/07/01 03:48:20;;;;;;;5.03;1.98;;;;;;;9.29;85.96;90759.16;5000450;28;20108;-87
2021/07/01 03:51:03;;;;;;;3.65;2.13;;;;;;;9.41;85.00;90761.03;5000668;28;20063;-87
2021/07/01 03:53:40;;;;;;;3.47;2.13;;;;;;;9.37;84.90;90754.97;5001162;28;20029;-87
2021/07/01 03:56:19;;;;;;;4.00;2.25;;;;;;;9.36;85.52;90756.78;5000989;28;20025;-87
2021/07/01 03:58:56;;;;;;;3.85;1.90;;;;;;;9.28;86.61;90762.84;4986470;28;20053;-87
2021/07/01 04:01:33;;;;;;;3.10;2.17;;;;;;;9.33;83.86;90760.81;4981174;28;20021;-88
2021/07/01 04:04:11;;;;;;;3.20;2.10;;;;;;;9.30;85.09;90758.09;4980096;28;20022;-87
2021/07/01 04:06:48;;;;;;;5.30;2.20;;;;;;;9.36;84.66;90764.59;4980836;28;20056;-87
2021/07/01 04:09:26;;;;;;;4.28;2.08;;;;;;;9.42;85.41;90765.16;4980216;28;20037;-87
2021/07/01 04:12:01;;;;;;;3.30;2.08;;;;;;;9.30;85.31;90760.72;4980685;28;20034;-89
2021/07/01 04:14:27;;;;;;;;;;;;;;;9.47;83.56;90757.91;4980951;28;20049;-87
2021/07/01 04:16:56;;;;;;;3.15;2.15;;;;;;;9.33;84.85;90760.06;5011819;28;19963;-87
2021/07/01 04:19:34;;;;;;;3.47;2.05;;;;;;;9.39;84.35;90758.00;4979092;28;20026;-87
2021/07/01 04:22:12;;;;;;;3.20;2.17;;;;;;;9.39;84.73;90763.94;4979121;28;20025;-86
2021/07/01 04:24:44;;;;;;;3.95;2.10;;;;;;;9.40;84.98;90765.50;4980852;28;20037;-89
2021/07/01 04:27:23;;;;;;;7.45;2.40;;;;;;;9.51;84.41;90771.78;5014583;28;20553;-87
2021/07/01 04:29:59;;;;;;;4.93;2.90;;;;;;;9.40;84.05;90770.69;4983513;28;20083;-87
2021/07/01 04:32:29;;;;;;;2.97;2.20;;;;;;;9.40;83.81;90765.50;4999055;28;20033;-88
2021/07/01 04:35:04;;;;;;;3.78;2.70;;;;;;;9.45;84.05;90765.25;4982938;28;20022;-87
2021/07/01 04:37:47;;;;;;;4.15;2.53;;;;;;;9.42;83.89;90762.56;5000134;28;20021;-87
2021/07/01 04:40:13;;;;;;;5.78;2.65;;;;;;;9.43;84.97;90772.63;4984050;28;20488;-89
2021/07/01 04:42:55;;;;;;;4.40;2.50;;;;;;;9.43;84.99;90770.03;4999323;28;20029;-87
2021/07/01 04:45:35;;;;;;;3.95;2.58;;;;;;;9.37;85.77;90766.13;5000951;28;20053;-87
2021/07/01 04:48:14;;;;;;;4.82;2.28;;;;;;;9.43;84.89;90764.81;4983380;28;20025;-87
2021/07/01 04:50:50;;;;;;;3.88;2.40;;;;;;;9.53;84.92;90774.81;4999447;28;20022;-87
2021/07/01 04:53:26;;;;;;;5.35;2.47;;;;;;;9.48;85.58;90775.03;4983786;28;20021;-87
2021/07/01 04:56:00;;;;;;;2.97;2.05;;;;;;;9.64;83.58;90780.34;5015058;28;20029;-87
2021/07/01 04:58:37;;;;;;;4.28;2.40;;;;;;;9.65;84.35;90775.91;4998839;28;20030;-87
2021/07/01 05:01:15;;;;;;;3.42;2.65;;;;;;;9.69;83.58;90784.59;4983113;28;20454;-87
2021/07/01 05:03:55;;;;;;;3.28;2.15;;;;;;;9.69;83.86;90784.59;4983389;28;20029;-87
2021/07/01 05:06:34;;;;;;;4.32;2.38;;;;;;;9.62;84.87;90776.56;5017593;28;20167;-87
2021/07/01 05:09:11;;;;;;;4.50;2.30;;;;;;;9.70;84.47;90784.25;5015088;28;20053;-87
2021/07/01 05:11:48;;;;;;;3.28;2.35;;;;;;;9.75;83.98;90796.28;4998514;28;20450;-87
2021/07/01 05:14:26;;;;;;;4.75;2.08;;;;;;;9.75;84.76;90786.66;4998854;28;20028;-87
2021/07/01 05:17:03;;;;;;;4.70;2.30;;;;;;;9.86;85.18;90791.41;4999487;28;20025;-87
2021/07/01 05:19:45;;;;;;;3.75;2.25;;;;;;;9.94;83.83;90796.50;4998571;28;20048;-87
2021/07/01 05:22:22;;;;;;;3.10;2.38;;;;;;;9.87;84.54;90801.50;4992842;28;20033;-87
2021/07/01 05:24:53;;;;;;;4.38;2.67;;;;;;;9.86;84.36;90802.59;4980620;28;20574;-87
2021/07/01 05:27:32;;;;;;;4.85;2.78;;;;;;;9.91;83.78;90789.34;5014768;28;20025;-87
2021/07/01 05:30:12;;;;;;;4.35;2.80;;;;;;;9.93;83.88;90792.41;5030962;28;20036;-87
2021/07/01 05:32:48;;;;;;;3.72;2.40;;;;;;;10.05;84.01;90794.22;5015003;28;20029;-86
2021/07/01 05:35:26;;;;;;;3.20;2.42;;;;;;;10.10;83.12;90788.78;5030410;28;20402;-87
2021/07/01 05:38:00;;;;;;;3.88;2.60;;;;;;;10.04;84.32;90793.47;5030880;28;20088;-87
2021/07/01 05:40:33;;;;;;;5.93;2.55;;;;;;;10.11;83.87;90782.50;5016404;28;20483;-87
2021/07/01 05:43:10;;;;;;;3.50;2.55;;;;;;;10.12;82.30;90783.25;5048971;28;20024;-92
2021/07/01 05:45:43;;;;;;;7.28;2.50;;;;;;;10.12;83.04;90783.25;5060934;28;20060;-91
2021/07/01 05:48:11;;;;;;;2.85;2.35;;;;;;;10.21;81.92;90776.06;5055497;28;20021;-88
2021/07/01 05:54:00;;;;;;;3.50;2.20;;;;;;;10.42;83.05;90792.34;4986553;28;20026;-87
2021/07/01 05:56:41;;;;;;;3.97;2.33;;;;;;;10.37;82.58;90789.97;4972251;28;20451;-86
2021/07/01 05:59:20;;;;;;;4.53;2.50;;;;;;;10.37;82.49;90797.78;5000829;28;20030;-87
2021/07/01 06:01:54;;;;;;;3.95;2.70;;;;;;;10.35;82.99;90788.78;4983652;28;20025;-87
2021/07/01 06:04:36;;;;;;;4.93;3.00;;;;;;;10.29;83.08;90798.69;4982836;28;20026;-87
2021/07/01 06:07:11;;;;;;;5.65;3.03;;;;;;;10.38;83.16;90798.53;4967995;28;20026;-87
2021/07/01 06:09:42;;;;;;;;;;;;;;;10.31;82.69;90790.53;4968817;28;20098;-87
2021/07/01 06:12:19;;;;;;;8.80;3.70;;;;;;;10.21;84.21;90797.69;4998728;28;20303;-88
2021/07/01 06:14:59;;;;;;;4.72;3.38;;;;;;;10.20;83.82;90800.59;4983522;28;20045;-87
2021/07/01 06:17:42;;;;;;;4.78;3.25;;;;;;;10.09;83.99;90795.09;4969972;28;20034;-86
2021/07/01 06:20:19;;;;;;;6.32;4.18;;;;;;;10.14;84.29;90807.13;5001837;28;20095;-90
2021/07/01 06:22:55;;;;;;;5.35;3.60;;;;;;;10.11;83.98;90802.59;4967537;28;20404;-88
2021/07/01 06:25:31;;;;;;;5.13;3.60;;;;;;;10.13;84.66;90808.22;4978645;28;20120;-87
2021/07/01 06:27:57;;;;;;;6.68;3.70;;;;;;;10.29;83.78;90796.06;5016152;28;20075;-88
2021/07/01 06:30:23;;;;;;;8.00;3.78;;;;;;;10.35;83.09;90797.34;4993979;28;20026;-87
2021/07/01 06:32:51;;;;;;;5.43;3.92;;;;;;;10.35;83.41;90797.34;4999501;28;20040;-87
2021/07/01 06:35:24;;;;;;;6.07;4.20;;;;;;;10.40;82.60;90794.53;4970401;28;20100;-87
2021/07/01 06:37:51;;;;;;;6.80;4.20;;;;;;;10.40;83.10;90794.53;4997338;28;20065;-87
2021/07/01 06:40:19;;;;;;;6.50;4.18;;;;;;;10.36;83.40;90788.47;4981080;28;20499;-88
2021/07/01 06:42:52;;;;;;;5.95;3.85;;;;;;;10.48;83.53;90795.50;4981571;28;20105;-87
2021/07/01 06:45:26;;;;;;;5.43;3.90;;;;;;;10.54;82.67;90796.78;4983364;28;20044;-87
2021/07/01 06:47:55;;;;;;;7.18;4.22;;;;;;;10.50;83.33;90794.06;4999307;28;20025;-87
2021/07/01 06:50:23;;;;;;;5.78;3.75;;;;;;;10.60;82.07;90797.28;5000387;28;20475;-87
2021/07/01 06:52:49;;;;;;;7.95;3.92;;;;;;;10.50;81.71;90788.88;5016397;28;20033;-87
2021/07/01 06:55:16;;;;;;;4.63;3.55;;;;;;;10.57;82.21;90803.94;5000555;28;20032;-87
2021/07/01 06:57:49;;;;;;;6.15;3.70;;;;;;;10.50;82.33;90808.94;5000793;28;20025;-87
2021/07/01 07:00:23;;;;;;;6.05;3.63;;;;;;;10.51;81.59;90800.03;5000944;28;20025;-87
2021/07/01 07:02:49;;;;;;;;;;;;;;;10.60;81.14;90807.72;5001920;28;20040;-88
2021/07/01 07:05:19;;;;;;;5.90;3.80;;;;;;;10.58;81.31;90807.31;5000223;28;19909;-87
2021/07/01 07:07:54;;;;;;;4.50;3.30;;;;;;;10.61;81.30;90804.03;5000617;28;20495;-87
2021/07/01 07:10:20;;;;;;;4.30;3.40;;;;;;;10.49;81.24;90808.19;5017135;28;20029;-87
2021/07/01 07:12:49;;;;;;;4.90;3.35;;;;;;;10.56;82.10;90817.28;5014293;28;20112;-87
2021/07/01 07:15:18;;;;;;;5.45;3.67;;;;;;;10.72;81.34;90823.34;5005019;28;20080;-87
2021/07/01 07:17:48;;;;;;;4.68;3.17;;;;;;;10.68;80.01;90822.47;5003026;28;20029;-87
2021/07/01 07:20:21;;;;;;;5.68;3.78;;;;;;;10.63;81.22;90817.47;5018522;28;20044;-87
2021/07/01 07:22:48;;;;;;;8.15;3.25;;;;;;;10.73;80.89;90822.25;4996839;28;20053;-87
2021/07/01 07:25:20;;;;;;;4.13;3.13;;;;;;;10.69;82.28;90814.31;5002008;28;20025;-87
2021/07/01 07:28:02;;;;;;;4.70;2.92;;;;;;;10.79;80.72;90820.16;5032705;28;20030;-87
2021/07/01 07:30:28;;;;;;;5.55;3.15;;;;;;;10.86;79.98;90815.91;5008346;28;20022;-88
2021/07/01 07:32:55;;;;;;;4.20;2.97;;;;;;;10.89;81.14;90830.88;5001395;28;20029;-87
2021/07/01 07:35:21;;;;;;;4.60;3.03;;;;;;;10.82;79.87;90825.47;5000079;28;20513;-87
2021/07/01 07:37:47;;;;;;;4.20;3.17;;;;;;;10.91;80.55;90822.72;4984581;28;20059;-88
2021/07/01 07:40:12;;;;;;;4.82;3.10;;;;;;;11.08;79.61;90835.47;5017779;28;20017;-87
2021/07/01 07:42:38;;;;;;;4.95;2.78;;;;;;;11.12;79.21;90832.97;5006854;28;20025;-88
2021/07/01 07:45:04;;;;;;;3.83;2.97;;;;;;;11.17;78.88;90835.34;5008873;28;20022;-87
2021/07/01 07:47:30;;;;;;;3.95;2.55;;;;;;;11.15;78.70;90834.91;5025405;28;20584;-85
2021/07/01 07:49:55;;;;;;;3.63;2.60;;;;;;;11.05;80.14;90823.09;5025018;28;20026;-87
2021/07/01 07:52:21;;;;;;;5.00;2.65;;;;;;;11.44;77.76;90821.50;5022437;28;20064;-87
2021/07/01 07:54:51;;;;;;;3.72;2.50;;;;;;;11.34;77.95;90819.41;5024108;28;20013;-87
2021/07/01 07:57:17;;;;;;;3.55;2.50;;;;;;;11.37;76.29;90818.72;5004439;28;20433;-87
2021/07/01 07:59:44;;;;;;;2.75;2.30;;;;;;;11.44;77.49;90818.13;5000566;28;20031;-87
2021/07/01 08:02:34;;;;;;;2.70;2.25;;;;;;;11.46;77.01;90816.72;5016391;28;20084;-87
2021/07/01 08:05:00;;;;;;;2.88;2.28;;;;;;;11.56;74.86;90804.28;5020244;28;20112;-88
2021/07/01 08:07:26;;;;;;;3.78;2.38;;;;;;;11.57;74.89;90808.41;4985538;28;20033;-87
2021/07/01 08:09:52;;;;;;;2.92;2.15;;;;;;;11.58;73.75;90809.91;4985903;28;20032;-88
2021/07/01 08:12:18;;;;;;;3.30;2.42;;;;;;;11.92;73.26;90817.09;5002841;28;20093;-87
2021/07/01 08:14:45;;;;;;;3.30;2.22;;;;;;;12.11;73.43;90823.50;5040311;28;20029;-87
2021/07/01 08:17:15;;;;;;;3.78;2.20;;;;;;;11.97;74.30;90823.91;4991088;28;20025;-87
2021/07/01 08:19:41;;;;;;;4.43;2.00;;;;;;;11.88;75.00;90825.97;5043559;28;20021;-88
2021/07/01 08:22:09;;;;;;;3.10;2.10;;;;;;;12.00;72.76;90823.25;5004254;28;20033;-88
2021/07/01 08:24:36;;;;;;;3.17;2.20;;;;;;;11.71;73.74;90827.00;5006101;28;20116;-88
2021/07/01 08:27:02;;;;;;;4.15;2.40;;;;;;;11.70;72.52;90830.72;5040022;28;20212;-86
2021/07/01 08:29:28;;;;;;;4.07;2.65;;;;;;;11.57;73.19;90837.88;5017306;28;20029;-88
2021/07/01 08:31:55;;;;;;;5.38;2.75;;;;;;;11.75;74.86;90842.75;5057637;23;20029;-86
2021/07/01 08:34:22;;;;;;;3.53;2.50;;;;;;;11.84;72.29;90825.13;4995321;28;20068;-87
2021/07/01 08:36:48;;;;;;;3.15;2.30;;;;;;;12.21;73.46;90828.19;5014282;28;20021;-87
2021/07/01 08:39:15;;;;;;;3.72;2.63;;;;;;;12.26;70.40;90835.00;5014688;28;20029;-88
2021/07/01 08:41:44;;;;;;;4.32;2.65;;;;;;;12.17;70.63;90827.38;5013349;28;20025;-87
2021/07/01 08:44:17;;;;;;;5.03;2.45;;;;;;;12.51;69.19;90827.72;4993743;28;20026;-87
2021/07/01 08:46:48;;;;;;;4.47;2.55;;;;;;;12.52;70.07;90821.41;4977505;28;20037;-88
2021/07/01 08:49:33;;;;;;;3.83;2.70;;;;;;;12.58;69.25;90830.47;4977351;28;20377;-87
2021/07/01 08:52:03;;;;;;;3.20;2.45;;;;;;;12.66;69.82;90837.38;4995702;28;20034;-88
2021/07/01 08:54:34;;;;;;;3.63;2.72;;;;;;;12.70;69.96;90837.47;4977855;28;20534;-87
2021/07/01 08:57:00;;;;;;;4.53;2.80;;;;;;;12.63;68.59;90838.06;4993439;28;20036;-88
2021/07/01 08:59:34;;;;;;;3.80;2.72;;;;;;;12.70;69.34;90840.84;4977504;28;20531;-88
2021/07/01 09:02:02;;;;;;;4.20;2.63;;;;;;;12.90;69.35;90826.69;4978519;28;20033;-85
2021/07/01 09:04:33;;;;;;;4.22;2.65;;;;;;;13.24;70.17;90844.53;4994452;28;20113;-87
2021/07/01 09:07:03;;;;;;;4.53;2.50;;;;;;;13.07;70.00;90837.81;4978257;28;20403;-87
2021/07/01 09:09:34;;;;;;;4.30;2.75;;;;;;;13.31;68.79;90850.66;4977032;28;20034;-87
2021/07/01 09:12:01;;;;;;;3.70;2.70;;;;;;;13.20;66.84;90839.19;4993039;28;20018;-88
2021/07/01 09:14:27;;;;;;;4.28;2.78;;;;;;;12.88;67.37;90841.94;4993562;28;20022;-87
2021/07/01 09:16:52;;;;;;;4.13;2.70;;;;;;;13.09;66.82;90843.47;4993508;28;20395;-88
2021/07/01 09:19:18;;;;;;;4.65;3.13;;;;;;;13.01;67.07;90839.22;4960821;28;20471;-88
2021/07/01 09:21:44;;;;;;;3.92;2.75;;;;;;;13.09;67.52;90838.25;4986522;28;20029;-89
2021/07/01 09:24:09;;;;;;;5.35;3.10;;;;;;;13.39;67.53;90849.69;4977054;28;20022;-88
2021/07/01 09:26:35;;;;;;;4.50;2.47;;;;;;;13.55;67.33;90851.47;4960905;28;20037;-87
2021/07/01 09:29:00;;;;;;;4.90;3.35;;;;;;;13.81;68.15;90850.78;4977411;28;20025;-86
2021/07/01 09:31:26;;;;;;;5.15;2.65;;;;;;;13.77;66.56;90860.44;4977092;28;20403;-88
2021/07/01 09:33:54;;;;;;;5.07;3.17;;;;;;;13.98;64.22;90866.03;4976984;28;20113;-87
2021/07/01 09:36:24;;;;;;;4.40;2.88;;;;;;;13.42;66.04;90852.72;4989203;28;20136;-88
2021/07/01 09:38:49;;;;;;;7.60;3.70;;;;;;;13.05;64.58;90858.34;4993688;28;20037;-88
2021/07/01 09:41:15;;;;;;;4.78;3.40;;;;;;;13.12;63.70;90861.88;4991402;28;20030;-88
2021/07/01 09:43:41;;;;;;;5.97;3.55;;;;;;;13.35;64.51;90856.72;4992685;28;20076;-88
2021/07/01 09:46:12;;;;;;;4.40;3.03;;;;;;;13.36;64.95;90858.25;5010382;28;20033;-87
2021/07/01 09:48:42;;;;;;;5.10;3.30;;;;;;;13.48;66.72;90846.09;4992749;28;20037;-89
2021/07/01 09:51:08;;;;;;;4.38;3.08;;;;;;;13.70;64.32;90861.06;4992445;28;20096;-87
2021/07/01 09:53:34;;;;;;;5.53;3.15;;;;;;;13.46;63.86;90861.38;4987063;28;20021;-87
2021/07/01 09:56:04;;;;;;;5.00;3.15;;;;;;;13.41;64.88;90870.28;4991151;28;20117;-87
2021/07/01 09:58:30;;;;;;;5.30;3.10;;;;;;;13.36;64.12;90867.97;4986112;28;20023;-88
2021/07/01 10:00:56;;;;;;;4.75;3.30;;;;;;;13.13;65.24;90878.31;4974378;28;20377;-88
2021/07/01 10:03:21;;;;;;;4.90;3.40;;;;;;;13.27;65.62;90873.38;4976491;28;20546;-87
2021/07/01 10:05:47;;;;;;;6.65;3.20;;;;;;;13.14;63.63;90871.97;5010352;28;20041;-89
2021/07/01 10:08:12;;;;;;;4.93;3.40;;;;;;;13.37;65.07;90872.84;4993440;28;20034;-87
2021/07/01 10:10:50;;;;;;;7.25;3.95;;;;;;;13.38;67.61;90876.22;4974129;28;20022;-87
2021/07/01 10:13:17;;;;;;;6.10;3.53;;;;;;;13.32;64.60;90867.09;4958353;28;20421;-87
2021/07/01 10:15:43;;;;;;;6.13;3.55;;;;;;;13.34;65.23;90868.28;4974571;28;20397;-87
2021/07/01 10:18:13;;;;;;;6.82;3.65;;;;;;;13.36;63.91;90873.94;4973575;28;20026;-86
2021/07/01 10:20:43;;;;;;;7.03;3.50;;;;;;;13.35;64.04;90869.78;4992059;28;20113;-86
2021/07/01 10:23:18;;;;;;;5.80;3.72;;;;;;;13.38;65.81;90866.50;4989891;28;20061;-86
2021/07/01 10:25:44;;;;;;;7.30;3.80;;;;;;;13.63;64.44;90871.44;4977532;28;20025;-88
2021/07/01 10:28:11;;;;;;;8.30;3.53;;;;;;;14.01;65.55;90865.34;4977587;28;20053;-87
2021/07/01 10:30:36;;;;;;;6.32;3.95;;;;;;;14.29;61.54;90865.06;4978644;28;20033;-87
2021/07/01 10:33:02;;;;;;;4.45;3.30;;;;;;;14.50;62.61;90845.53;4997793;28;20076;-90
2021/07/01 10:35:35;;;;;;;6.57;3.70;;;;;;;14.74;61.85;90867.97;4980055;28;20040;-88
2021/07/01 10:38:11;;;;;;;8.10;3.90;;;;;;;14.19;60.71;90876.13;4979374;28;20038;-86
2021/07/01 10:40:39;;;;;;;5.18;3.75;;;;;;;14.48;60.65;90868.69;4977399;28;20022;-88
2021/07/01 10:43:09;;;;;;;4.95;3.63;;;;;;;14.44;60.22;90860.03;4960397;28;20396;-88
2021/07/01 10:45:37;;;;;;;4.97;3.67;;;;;;;14.28;60.12;90858.31;4994391;28;20027;-86
2021/07/01 10:48:17;;;;;;;5.45;3.30;;;;;;;14.44;60.46;90854.78;4976369;28;20033;-88
2021/07/01 10:50:45;;;;;;;6.55;3.10;;;;;;;14.29;59.81;90859.81;4961009;28;20026;-88
2021/07/01 10:53:29;;;;;;;5.32;3.30;;;;;;;14.35;60.79;90861.03;4968718;28;20026;-88
2021/07/01 10:56:08;;;;;;;6.22;3.42;;;;;;;14.05;61.18;90866.16;4993585;28;20026;-89
2021/07/01 10:58:35;;;;;;;5.35;3.22;;;;;;;13.98;62.84;90865.28;4976940;28;20022;-89
2021/07/01 11:01:02;;;;;;;5.22;3.00;;;;;;;14.20;60.75;90866.38;4975999;28;20117;-87
2021/07/01 11:03:30;;;;;;;5.72;3.25;;;;;;;14.13;61.00;90861.03;4992059;28;20518;-88
2021/07/01 11:05:58;;;;;;;4.60;3.15;;;;;;;14.21;60.77;90857.44;4976017;28;20065;-88
2021/07/01 11:08:28;;;;;;;6.47;3.28;;;;;;;14.38;61.40;90862.19;4993622;28;20550;-88
2021/07/01 11:10:54;;;;;;;6.75;3.83;;;;;;;14.07;59.47;90863.22;4995203;28;20029;-90
2021/07/01 11:13:24;;;;;;;5.43;3.05;;;;;;;13.80;60.90;90860.50;4979295;28;20079;-89
2021/07/01 11:16:07;;;;;;;5.65;3.13;;;;;;;14.24;61.05;90856.72;4996049;28;20079;-88
2021/07/01 11:18:35;;;;;;;4.90;3.20;;;;;;;14.23;60.43;90863.81;4995054;28;20038;-88
2021/07/01 11:21:17;;;;;;;5.00;3.13;;;;;;;14.33;59.24;90871.09;4978732;28;20022;-88
2021/07/01 11:23:46;;;;;;;5.10;2.90;;;;;;;14.51;59.75;90860.91;4995393;28;20033;-88
2021/07/01 11:26:30;;;;;;;5.07;2.92;;;;;;;14.69;58.83;90865.66;5017210;28;20156;-88
2021/07/01 11:28:57;;;;;;;4.95;3.05;;;;;;;14.45;60.46;90862.31;4977642;28;20030;-88
2021/07/01 11:31:44;;;;;;;3.72;2.70;;;;;;;14.23;60.98;90860.44;4978883;28;20037;-88
2021/07/01 11:34:11;;;;;;;5.30;3.05;;;;;;;13.89;61.39;90865.53;5011176;28;20057;-87
2021/07/01 11:36:40;;;;;;;5.13;3.47;;;;;;;13.62;62.41;90848.97;4975241;28;20048;-89
2021/07/01 11:39:15;;;;;;;5.05;3.15;;;;;;;13.49;62.14;90865.94;4942934;28;20030;-88
2021/07/01 11:41:46;;;;;;;4.60;3.10;;;;;;;13.45;63.50;90865.88;4975512;28;20038;-89
2021/07/01 11:44:21;;;;;;;6.03;3.10;;;;;;;13.34;64.48;90868.28;4961104;28;20042;-88
2021/07/01 11:46:50;;;;;;;3.90;2.88;;;;;;;13.73;63.54;90880.59;4976859;28;20492;-87
2021/07/01 11:49:19;;;;;;;3.78;2.80;;;;;;;13.82;63.99;90881.13;4994513;28;20030;-87
2021/07/01 11:51:45;;;;;;;6.13;3.20;;;;;;;13.88;62.70;90864.00;4977344;28;20026;-88
2021/07/01 11:54:13;;;;;;;3.90;3.13;;;;;;;14.12;63.17;90870.75;4976121;28;20037;-88
2021/07/01 11:57:12;;;;;;;5.38;2.90;;;;;;;14.17;62.89;90878.34;4976433;28;20022;-88
2021/07/01 11:59:31;;;;;;;5.60;3.17;;;;;;;14.06;62.10;90872.16;4992113;28;20034;-88
2021/07/01 12:01:58;;;;;;;4.88;3.22;;;;;;;13.75;61.97;90881.00;4960740;28;20084;-87
2021/07/01 12:04:33;;;;;;;5.40;3.30;;;;;;;13.46;62.98;90879.72;4976552;28;20045;-88
2021/07/01 12:07:04;;;;;;;7.03;3.22;;;;;;;13.34;64.03;90884.00;4961088;28;20388;-88
2021/07/01 12:09:30;;;;;;;4.53;3.33;;;;;;;13.33;64.45;90884.34;4993263;28;20046;-88
2021/07/01 12:12:03;;;;;;;8.15;3.30;;;;;;;13.31;64.82;90891.78;4960467;28;20022;-88